createdAt,value
2023-05-07T00:00:25.583Z,15.27
2023-05-07T00:02:55.628Z,15.05
2023-05-07T00:05:25.713Z,14.55
2023-05-07T00:07:58.466Z,15.35
2023-05-07T00:10:30.511Z,15.57
2023-05-07T00:13:00.590Z,14.57
2023-05-07T00:15:33.241Z,14.68
2023-05-07T00:18:03.293Z,14.32
2023-05-07T00:20:35.593Z,14.75
2023-05-07T00:23:06.142Z,15.38
2023-05-07T00:25:36.101Z,14.70
2023-05-07T00:28:06.423Z,15.00
2023-05-07T00:30:39.221Z,14.50
2023-05-07T00:33:09.338Z,15.65
2023-05-07T00:35:39.420Z,15.30
2023-05-07T00:38:09.452Z,14.90
2023-05-07T00:40:39.437Z,16.95
2023-05-07T00:43:10.101Z,16.08
2023-05-07T00:45:42.939Z,16.52
2023-05-07T00:48:12.969Z,15.60
2023-05-07T00:50:43.149Z,15.10
2023-05-07T00:53:13.322Z,15.70
2023-05-07T00:55:43.678Z,15.68
2023-05-07T00:58:13.673Z,14.63
2023-05-07T01:00:46.353Z,15.43
2023-05-07T01:03:16.573Z,16.33
2023-05-07T01:05:48.496Z,16.20
2023-05-07T01:08:20.035Z,15.73
2023-05-07T01:10:50.659Z,16.00
2023-05-07T01:13:22.095Z,16.00
2023-05-07T01:15:54.884Z,14.88
2023-05-07T01:18:24.885Z,16.85
2023-05-07T01:20:55.534Z,15.75
2023-05-07T01:23:29.101Z,15.60
2023-05-07T01:25:59.464Z,16.00
2023-05-07T01:28:29.552Z,15.65
2023-05-07T01:31:05.657Z,15.80
2023-05-07T01:33:39.051Z,15.93
2023-05-07T01:36:11.398Z,16.55
2023-05-07T01:38:45.162Z,17.08
2023-05-07T01:41:16.264Z,17.08
2023-05-07T01:43:47.405Z,15.98
2023-05-07T01:46:18.608Z,15.73
2023-05-07T01:48:49.751Z,15.65
2023-05-07T01:51:21.077Z,16.88
2023-05-07T01:53:54.507Z,15.43
2023-05-07T01:56:24.894Z,15.45
2023-05-07T01:58:55.206Z,15.50
2023-05-07T02:01:25.213Z,14.65
2023-05-07T02:03:55.416Z,15.00
2023-05-07T02:06:25.496Z,15.07
2023-05-07T02:08:58.083Z,15.07
2023-05-07T02:11:28.108Z,14.45
2023-05-07T02:13:58.098Z,15.13
2023-05-07T02:16:28.105Z,14.50
2023-05-07T02:18:59.299Z,14.52
2023-05-07T02:21:31.103Z,14.40
2023-05-07T02:24:03.840Z,15.07
2023-05-07T02:26:33.807Z,15.02
2023-05-07T02:29:03.800Z,16.20
2023-05-07T02:31:35.069Z,16.08
2023-05-07T02:34:05.248Z,15.05
2023-05-07T02:36:35.414Z,14.77
2023-05-07T02:39:08.005Z,14.80
2023-05-07T02:41:38.034Z,15.00
2023-05-07T02:44:08.295Z,15.38
2023-05-07T02:46:38.276Z,15.45
2023-05-07T02:49:08.270Z,15.35
2023-05-07T02:51:38.310Z,15.25
2023-05-07T02:54:10.990Z,15.20
2023-05-07T02:56:40.943Z,15.43
2023-05-07T02:59:13.727Z,14.82
2023-05-07T03:01:45.203Z,14.85
2023-05-07T03:04:15.413Z,14.70
2023-05-07T03:06:45.546Z,14.45
2023-05-07T03:09:18.123Z,14.68
2023-05-07T03:11:48.151Z,15.18
2023-05-07T03:14:18.125Z,13.70
2023-05-07T03:16:48.090Z,14.02
2023-05-07T03:19:18.073Z,13.60
2023-05-07T03:21:48.463Z,13.30
2023-05-07T03:24:21.030Z,12.90
2023-05-07T03:26:51.286Z,13.85
2023-05-07T03:29:21.530Z,14.68
2023-05-07T03:31:51.547Z,13.73
2023-05-07T03:34:23.224Z,12.98
2023-05-07T03:36:53.246Z,13.02
2023-05-07T03:39:25.841Z,13.82
2023-05-07T03:41:56.274Z,12.93
2023-05-07T03:44:26.392Z,12.85
2023-05-07T03:46:56.531Z,13.48
2023-05-07T03:49:26.614Z,13.23
2023-05-07T03:51:56.787Z,12.63
2023-05-07T03:54:29.520Z,13.15
2023-05-07T03:56:59.476Z,12.38
2023-05-07T03:59:29.462Z,13.05
2023-05-07T04:01:59.450Z,12.38
2023-05-07T04:04:34.089Z,13.23
2023-05-07T04:07:04.318Z,12.25
2023-05-07T04:09:36.885Z,12.38
2023-05-07T04:12:07.896Z,12.85
2023-05-07T04:14:38.065Z,12.23
2023-05-07T04:17:08.296Z,11.73
2023-05-07T04:19:38.311Z,11.50
2023-05-07T04:22:08.334Z,11.32
2023-05-07T04:24:40.872Z,11.40
2023-05-07T04:27:10.860Z,11.57
2023-05-07T04:29:43.343Z,11.90
2023-05-07T04:32:13.896Z,10.32
2023-05-07T04:34:43.918Z,11.10
2023-05-07T04:37:14.099Z,11.18
2023-05-07T04:39:46.630Z,11.57
2023-05-07T04:42:19.048Z,11.45
2023-05-07T04:44:49.453Z,11.77
2023-05-07T04:47:19.415Z,11.95
2023-05-07T04:49:49.385Z,11.30
2023-05-07T04:52:19.517Z,11.30
2023-05-07T04:54:52.073Z,12.32
2023-05-07T04:57:22.018Z,12.77
2023-05-07T04:59:52.168Z,11.10
2023-05-07T05:02:22.219Z,12.18
2023-05-07T05:04:52.177Z,12.40
2023-05-07T05:07:22.145Z,11.85
2023-05-07T05:09:54.717Z,11.50
2023-05-07T05:12:24.691Z,12.57
2023-05-07T05:14:54.843Z,11.20
2023-05-07T05:17:24.993Z,12.70
2023-05-07T05:19:55.125Z,13.00
2023-05-07T05:22:25.087Z,11.75
2023-05-07T05:24:57.628Z,12.23
2023-05-07T05:27:28.092Z,12.70
2023-05-07T05:29:58.097Z,12.55
2023-05-07T05:32:28.143Z,12.45
2023-05-07T05:34:58.093Z,12.48
2023-05-07T05:37:28.901Z,11.48
2023-05-07T05:40:01.417Z,11.18
2023-05-07T05:42:31.399Z,11.50
2023-05-07T05:45:01.329Z,12.13
2023-05-07T05:47:31.398Z,11.77
2023-05-07T05:50:01.387Z,11.43
2023-05-07T05:52:31.675Z,11.73
2023-05-07T05:55:04.201Z,11.45
2023-05-07T05:57:34.784Z,12.27
2023-05-07T06:00:05.401Z,10.98
2023-05-07T06:02:35.474Z,11.00
2023-05-07T06:05:05.539Z,9.98
2023-05-07T06:07:35.842Z,10.90
2023-05-07T06:10:10.845Z,10.52
2023-05-07T06:12:41.193Z,11.02
2023-05-07T06:15:12.255Z,10.57
2023-05-07T06:17:42.249Z,10.43
2023-05-07T06:20:13.286Z,9.40
2023-05-07T06:22:43.427Z,10.20
2023-05-07T06:25:16.112Z,9.98
2023-05-07T06:27:46.141Z,9.18
2023-05-07T06:30:16.692Z,9.43
2023-05-07T06:32:46.727Z,8.55
2023-05-07T06:35:16.717Z,9.35
2023-05-07T06:37:46.662Z,9.07
2023-05-07T06:40:19.302Z,9.20
2023-05-07T06:42:49.265Z,7.72
2023-05-07T06:45:19.436Z,8.90
2023-05-07T06:47:49.574Z,9.07
2023-05-07T06:50:20.425Z,8.57
2023-05-07T06:52:50.389Z,9.30
2023-05-07T06:55:23.396Z,8.95
2023-05-07T06:57:53.358Z,8.80
2023-05-07T07:00:24.257Z,8.82
2023-05-07T07:02:54.245Z,8.10
2023-05-07T07:05:27.065Z,8.18
2023-05-07T07:07:57.052Z,8.13
2023-05-07T07:10:29.584Z,7.95
2023-05-07T07:12:59.595Z,8.38
2023-05-07T07:15:30.905Z,8.48
2023-05-07T07:18:00.878Z,8.00
2023-05-07T07:20:30.902Z,7.90
2023-05-07T07:23:00.867Z,7.97
2023-05-07T07:25:33.400Z,7.05
2023-05-07T07:28:03.381Z,7.20
2023-05-07T07:30:33.364Z,6.38
2023-05-07T07:33:04.488Z,5.90
2023-05-07T07:35:34.928Z,5.75
2023-05-07T07:38:05.296Z,6.00
2023-05-07T07:40:39.217Z,6.38
2023-05-07T07:43:09.243Z,5.97
2023-05-07T07:45:41.051Z,6.28
2023-05-07T07:48:11.292Z,6.03
2023-05-07T07:50:45.855Z,5.78
2023-05-07T07:53:17.721Z,5.15
2023-05-07T07:55:58.093Z,5.38
2023-05-07T07:58:31.290Z,6.15
2023-05-07T08:01:01.643Z,5.03
2023-05-07T08:03:33.624Z,5.13
2023-05-07T08:06:06.741Z,5.22
2023-05-07T08:08:36.905Z,4.90
2023-05-07T08:11:10.117Z,4.72
2023-05-07T08:13:42.280Z,4.30
2023-05-07T08:16:12.672Z,4.22
2023-05-07T08:18:46.067Z,4.30
2023-05-07T08:21:16.137Z,3.85
2023-05-07T08:23:46.146Z,3.13
2023-05-07T08:26:18.796Z,3.88
2023-05-07T08:28:48.772Z,3.90
2023-05-07T08:31:18.883Z,3.90
2023-05-07T08:33:48.957Z,4.25
2023-05-07T08:36:20.415Z,4.05
2023-05-07T08:38:50.760Z,4.25
2023-05-07T08:41:23.447Z,3.97
2023-05-07T08:43:54.951Z,3.60
2023-05-07T08:46:29.374Z,3.42
2023-05-07T08:48:59.437Z,3.97
2023-05-07T08:51:29.429Z,3.22
2023-05-07T08:53:59.389Z,2.78
2023-05-07T08:56:31.945Z,2.13
2023-05-07T08:59:01.930Z,2.88
2023-05-07T09:01:31.952Z,2.67
2023-05-07T09:04:02.284Z,3.03
2023-05-07T09:06:32.361Z,2.33
2023-05-07T09:09:02.449Z,2.35
2023-05-07T09:11:35.063Z,2.70
2023-05-07T09:14:05.707Z,1.90
2023-05-07T09:16:36.599Z,2.53
2023-05-07T09:19:06.723Z,2.08
2023-05-07T09:21:36.725Z,2.40
2023-05-07T09:24:07.190Z,1.90
2023-05-07T09:26:39.773Z,1.88
2023-05-07T09:29:10.119Z,2.25
2023-05-07T09:31:41.460Z,2.30
2023-05-07T09:34:11.468Z,2.42
2023-05-07T09:36:41.592Z,2.40
2023-05-07T09:39:11.981Z,2.38
2023-05-07T09:41:52.434Z,2.33
2023-05-07T09:44:23.184Z,1.92
2023-05-07T09:46:59.280Z,2.40
2023-05-07T09:49:33.577Z,2.03
2023-05-07T09:52:07.194Z,2.90
2023-05-07T09:54:39.045Z,2.10
2023-05-07T09:57:13.359Z,1.83
2023-05-07T09:59:47.123Z,1.88
2023-05-07T10:02:19.715Z,2.77
2023-05-07T10:04:50.713Z,2.03
2023-05-07T10:07:21.330Z,2.35
2023-05-07T10:09:51.651Z,3.05
2023-05-07T10:12:25.295Z,2.60
2023-05-07T10:14:58.435Z,1.83
2023-05-07T10:17:29.065Z,2.58
2023-05-07T10:19:59.417Z,2.50
2023-05-07T10:22:30.452Z,1.90
2023-05-07T10:25:03.625Z,2.00
2023-05-07T10:27:36.876Z,2.00
2023-05-07T10:30:22.118Z,1.73
2023-05-07T10:32:56.590Z,1.88
2023-05-07T10:35:30.659Z,2.65
2023-05-07T10:38:00.750Z,2.10
2023-05-07T10:40:30.819Z,1.88
2023-05-07T10:43:08.462Z,2.38
2023-05-07T10:45:40.181Z,2.20
2023-05-07T10:48:28.132Z,1.63
2023-05-07T10:51:24.216Z,2.13
2023-05-07T10:54:24.914Z,0.68
2023-05-07T10:56:55.214Z,1.75
2023-05-07T10:59:45.164Z,1.52
2023-05-07T11:02:16.461Z,1.75
2023-05-07T11:04:46.559Z,2.08
2023-05-07T11:07:33.339Z,1.55
2023-05-07T11:10:11.265Z,1.70
2023-05-07T11:12:57.501Z,1.73
2023-05-07T11:15:49.103Z,1.17
2023-05-07T11:18:21.271Z,1.48
2023-05-07T11:21:02.549Z,1.83
2023-05-07T11:24:02.765Z,2.00
2023-05-07T11:26:34.998Z,1.70
2023-05-07T11:29:05.087Z,1.95
2023-05-07T11:31:37.945Z,1.80
2023-05-07T11:34:08.418Z,1.83
2023-05-07T11:36:39.885Z,1.80
2023-05-07T11:39:09.903Z,1.65
2023-05-07T11:41:41.027Z,1.70
2023-05-07T11:44:11.037Z,1.73
2023-05-07T11:46:47.222Z,1.65
2023-05-07T11:49:17.284Z,2.13
2023-05-07T11:51:47.884Z,1.40
2023-05-07T11:54:20.592Z,1.90
2023-05-07T11:56:50.773Z,1.70
2023-05-07T11:59:23.523Z,1.35
2023-05-07T12:01:56.125Z,1.77
2023-05-07T12:04:26.497Z,1.20
2023-05-07T12:06:58.606Z,1.55
2023-05-07T12:09:28.606Z,1.80
2023-05-07T12:11:58.626Z,1.50
2023-05-07T12:14:33.710Z,1.70
2023-05-07T12:17:07.358Z,1.20
2023-05-07T12:19:38.192Z,1.30
2023-05-07T12:22:09.174Z,1.20
2023-05-07T12:24:49.345Z,1.40
2023-05-07T12:27:20.741Z,1.80
2023-05-07T12:29:51.584Z,1.58
2023-05-07T12:32:25.785Z,1.25
2023-05-07T12:34:56.333Z,1.58
2023-05-07T12:37:31.794Z,2.00
2023-05-07T12:40:10.176Z,1.80
2023-05-07T12:42:41.719Z,1.50
2023-05-07T12:45:16.275Z,1.40
2023-05-07T12:47:51.360Z,1.70
2023-05-07T12:50:22.099Z,1.73
2023-05-07T12:52:52.539Z,1.50
2023-05-07T12:55:22.648Z,1.45
2023-05-07T12:57:54.183Z,1.98
2023-05-07T13:00:38.154Z,1.80
2023-05-07T13:03:11.009Z,1.63
2023-05-07T13:05:41.069Z,1.50
2023-05-07T13:08:11.040Z,2.30
2023-05-07T13:10:41.034Z,1.70
2023-05-07T13:13:11.061Z,1.50
2023-05-07T13:15:41.059Z,1.90
2023-05-07T13:18:13.739Z,1.58
2023-05-07T13:20:43.807Z,1.80
2023-05-07T13:23:13.845Z,1.75
2023-05-07T13:25:43.835Z,1.38
2023-05-07T13:28:13.935Z,1.75
2023-05-07T13:30:44.528Z,1.35
2023-05-07T13:33:18.054Z,1.42
2023-05-07T13:35:48.695Z,1.95
2023-05-07T13:38:19.194Z,1.98
2023-05-07T13:40:49.194Z,0.50
2023-05-07T13:43:19.938Z,1.08
2023-05-07T13:45:49.990Z,1.10
2023-05-07T13:48:22.562Z,1.90
2023-05-07T13:50:52.500Z,1.75
2023-05-07T13:53:22.480Z,1.95
2023-05-07T13:55:52.531Z,1.23
2023-05-07T13:58:22.487Z,1.60
2023-05-07T14:00:52.754Z,1.38
2023-05-07T14:03:25.667Z,1.60
2023-05-07T14:05:55.759Z,1.45
2023-05-07T14:08:26.776Z,1.50
2023-05-07T14:10:56.970Z,1.60
2023-05-07T14:13:28.050Z,1.70
2023-05-07T14:15:58.099Z,1.40
2023-05-07T14:18:30.748Z,1.50
2023-05-07T14:21:01.018Z,1.60
2023-05-07T14:23:31.267Z,1.13
2023-05-07T14:26:01.245Z,1.20
2023-05-07T14:28:31.229Z,1.58
2023-05-07T14:31:01.326Z,0.50
2023-05-07T14:33:33.920Z,1.38
2023-05-07T14:36:04.703Z,1.55
2023-05-07T14:38:35.417Z,1.20
2023-05-07T14:41:05.547Z,0.90
2023-05-07T14:43:35.532Z,1.00
2023-05-07T14:46:05.552Z,1.58
2023-05-07T14:48:38.094Z,1.27
2023-05-07T14:51:08.137Z,1.40
2023-05-07T14:53:38.123Z,1.30
2023-05-07T14:56:09.328Z,1.10
2023-05-07T14:58:39.781Z,1.20
2023-05-07T15:01:09.835Z,1.33
2023-05-07T15:03:43.271Z,1.48
2023-05-07T15:06:13.338Z,1.27
2023-05-07T15:08:43.379Z,1.80
2023-05-07T15:11:13.340Z,1.00
2023-05-07T15:13:43.350Z,1.10
2023-05-07T15:16:13.467Z,1.42
2023-05-07T15:18:46.861Z,1.40
2023-05-07T15:21:16.948Z,1.45
2023-05-07T15:23:47.582Z,1.83
2023-05-07T15:26:17.578Z,1.17
2023-05-07T15:28:47.555Z,1.40
2023-05-07T15:31:17.587Z,1.60
2023-05-07T15:33:50.226Z,1.50
2023-05-07T15:36:20.195Z,1.35
2023-05-07T15:38:50.216Z,1.90
2023-05-07T15:41:20.196Z,1.75
2023-05-07T15:43:53.935Z,1.98
2023-05-07T15:46:26.508Z,1.80
2023-05-07T15:49:00.025Z,1.60
2023-05-07T15:51:30.876Z,1.50
2023-05-07T15:54:01.208Z,2.25
2023-05-07T15:56:33.908Z,1.90
2023-05-07T15:59:04.221Z,1.40
2023-05-07T16:01:34.301Z,2.00
2023-05-07T16:04:07.390Z,1.58
2023-05-07T16:06:37.444Z,1.60
2023-05-07T16:09:09.443Z,1.63
2023-05-07T16:11:39.433Z,1.65
2023-05-07T16:14:09.902Z,1.63
2023-05-07T16:16:41.113Z,1.83
2023-05-07T16:19:13.830Z,1.38
2023-05-07T16:21:43.875Z,1.42
2023-05-07T16:24:13.989Z,1.25
2023-05-07T16:26:43.964Z,1.50
2023-05-07T16:29:13.981Z,1.70
2023-05-07T16:31:44.717Z,1.27
2023-05-07T16:34:17.259Z,1.48
2023-05-07T16:36:47.332Z,1.50
2023-05-07T16:39:17.551Z,1.50
2023-05-07T16:41:48.953Z,1.48
2023-05-07T16:44:19.107Z,2.08
2023-05-07T16:46:49.131Z,1.63
2023-05-07T16:49:21.755Z,1.58
2023-05-07T16:51:51.770Z,1.77
2023-05-07T16:54:21.754Z,1.80
2023-05-07T16:56:51.695Z,1.42
2023-05-07T16:59:23.260Z,1.80
2023-05-07T17:01:53.731Z,1.83
2023-05-07T17:04:26.507Z,2.03
2023-05-07T17:06:57.110Z,1.70
2023-05-07T17:09:27.186Z,1.80
2023-05-07T17:11:57.393Z,1.80
2023-05-07T17:14:27.468Z,2.10
2023-05-07T17:16:57.474Z,2.13
2023-05-07T17:19:30.275Z,2.40
2023-05-07T17:22:00.282Z,2.30
2023-05-07T17:24:30.234Z,1.70
2023-05-07T17:27:00.273Z,1.65
2023-05-07T17:29:30.447Z,1.83
2023-05-07T17:32:00.857Z,2.15
2023-05-07T17:34:33.708Z,1.70
2023-05-07T17:37:03.839Z,1.95
2023-05-07T17:39:33.827Z,1.85
2023-05-07T17:42:03.861Z,2.03
2023-05-07T17:44:34.074Z,2.13
2023-05-07T17:47:04.312Z,2.05
2023-05-07T17:49:37.472Z,2.20
2023-05-07T17:52:08.906Z,2.03
2023-05-07T17:54:38.879Z,1.75
2023-05-07T17:57:08.861Z,2.05
2023-05-07T17:59:39.381Z,1.98
2023-05-07T18:02:09.547Z,2.10
2023-05-07T18:04:42.108Z,1.92
2023-05-07T18:07:12.139Z,2.08
2023-05-07T18:09:42.092Z,1.92
2023-05-07T18:12:12.145Z,1.90
2023-05-07T18:14:42.127Z,1.98
2023-05-07T18:17:12.283Z,2.25
2023-05-07T18:19:45.958Z,2.63
2023-05-07T18:22:16.326Z,2.75
2023-05-07T18:24:46.505Z,3.58
2023-05-07T18:27:16.638Z,2.45
2023-05-07T18:29:46.820Z,2.20
2023-05-07T18:32:16.951Z,2.40
2023-05-07T18:34:49.663Z,2.00
2023-05-07T18:37:19.675Z,2.40
2023-05-07T18:39:49.718Z,2.70
2023-05-07T18:42:20.350Z,4.05
2023-05-07T18:44:50.395Z,3.00
2023-05-07T18:47:20.601Z,2.13
2023-05-07T18:49:53.335Z,2.28
2023-05-07T18:52:26.244Z,2.40
2023-05-07T18:54:56.418Z,2.55
2023-05-07T18:57:29.612Z,1.88
2023-05-07T18:59:59.741Z,2.53
2023-05-07T19:02:29.827Z,2.65
2023-05-07T19:05:02.624Z,2.50
2023-05-07T19:07:32.694Z,2.47
2023-05-07T19:10:18.904Z,2.20
2023-05-07T19:12:50.047Z,2.55
2023-05-07T19:15:20.066Z,3.42
2023-05-07T19:17:52.129Z,2.28
2023-05-07T19:20:25.101Z,2.17
2023-05-07T19:22:55.105Z,2.25
2023-05-07T19:25:25.209Z,2.58
2023-05-07T19:27:56.762Z,3.03
2023-05-07T19:30:27.318Z,3.03
2023-05-07T19:32:57.546Z,2.90
2023-05-07T19:35:31.518Z,3.05
2023-05-07T19:38:01.547Z,2.40
2023-05-07T19:40:31.661Z,2.40
2023-05-07T19:43:02.150Z,2.50
2023-05-07T19:45:32.719Z,2.50
2023-05-07T19:48:02.782Z,2.80
2023-05-07T19:50:37.380Z,2.83
2023-05-07T19:55:38.370Z,2.47
2023-05-07T19:58:08.599Z,3.03
2023-05-07T20:00:39.590Z,2.90
2023-05-07T20:03:14.825Z,3.17
2023-05-07T20:05:50.844Z,3.00
2023-05-07T20:08:21.115Z,2.92
2023-05-07T20:10:51.383Z,3.33
2023-05-07T20:13:21.658Z,2.97
2023-05-07T20:15:51.754Z,2.50
2023-05-07T20:18:23.380Z,2.50
2023-05-07T20:20:56.338Z,2.83
2023-05-07T20:23:27.001Z,2.78
2023-05-07T20:25:57.553Z,3.00
2023-05-07T20:28:30.840Z,2.80
2023-05-07T20:31:00.917Z,3.00
2023-05-07T20:33:30.942Z,2.60
2023-05-07T20:36:03.699Z,2.80
2023-05-07T20:38:34.032Z,2.70
2023-05-07T20:41:09.905Z,2.60
2023-05-07T20:43:40.319Z,3.22
2023-05-07T20:46:10.367Z,2.75
2023-05-07T20:48:40.433Z,2.90
2023-05-07T20:51:13.845Z,3.25
2023-05-07T20:53:48.174Z,3.45
2023-05-07T20:56:18.756Z,3.10
2023-05-07T20:58:48.939Z,3.58
2023-05-07T21:01:19.016Z,3.33
2023-05-07T21:03:50.329Z,3.45
2023-05-07T21:06:23.275Z,3.28
2023-05-07T21:08:53.340Z,3.67
2023-05-07T21:11:23.612Z,3.30
2023-05-07T21:13:53.650Z,3.50
2023-05-07T21:16:24.291Z,3.45
2023-05-07T21:18:54.349Z,3.42
2023-05-07T21:21:28.148Z,3.95
2023-05-07T21:23:58.266Z,3.87
2023-05-07T21:26:28.244Z,3.65
2023-05-07T21:28:58.251Z,3.90
2023-05-07T21:31:28.458Z,3.90
2023-05-07T21:33:59.286Z,3.42
2023-05-07T21:36:31.825Z,3.67
2023-05-07T21:39:01.822Z,4.25
2023-05-07T21:41:31.864Z,4.10
2023-05-07T21:44:01.807Z,3.63
2023-05-07T21:46:31.940Z,4.20
2023-05-07T21:49:02.001Z,4.57
2023-05-07T21:51:37.294Z,3.75
2023-05-07T21:54:07.891Z,4.80
2023-05-07T21:56:37.850Z,4.50
2023-05-07T21:59:07.825Z,4.10
2023-05-07T22:01:37.912Z,4.32
2023-05-07T22:04:08.224Z,4.47
2023-05-07T22:06:41.238Z,4.60
2023-05-07T22:09:11.324Z,4.15
2023-05-07T22:11:41.358Z,4.28
2023-05-07T22:14:11.415Z,5.07
2023-05-07T22:16:41.800Z,4.70
2023-05-07T22:19:11.861Z,4.10
2023-05-07T22:21:44.433Z,4.78
2023-05-07T22:24:14.446Z,4.90
2023-05-07T22:26:45.242Z,5.07
2023-05-07T22:29:15.228Z,5.22
2023-05-07T22:31:45.310Z,4.90
2023-05-07T22:34:15.312Z,4.95
2023-05-07T22:36:47.917Z,4.88
2023-05-07T22:39:17.878Z,5.75
2023-05-07T22:41:47.897Z,5.13
2023-05-07T22:44:18.017Z,5.75
2023-05-07T22:46:49.870Z,5.30
2023-05-07T22:49:19.845Z,6.45
2023-05-07T22:51:52.374Z,5.95
2023-05-07T22:54:24.191Z,6.47
2023-05-07T22:56:55.507Z,5.75
2023-05-07T22:59:25.462Z,5.68
2023-05-07T23:01:55.975Z,6.15
2023-05-07T23:04:26.154Z,5.93
2023-05-07T23:06:58.761Z,6.63
2023-05-07T23:09:28.788Z,6.55
2023-05-07T23:11:58.811Z,6.20
2023-05-07T23:14:28.834Z,6.50
2023-05-07T23:16:58.918Z,7.03
2023-05-07T23:19:28.926Z,6.63
2023-05-07T23:22:01.556Z,6.50
2023-05-07T23:24:31.523Z,6.78
2023-05-07T23:27:01.538Z,6.57
2023-05-07T23:29:31.581Z,6.45
2023-05-07T23:32:01.545Z,6.97
2023-05-07T23:34:31.517Z,6.53
2023-05-07T23:37:04.093Z,6.82
2023-05-07T23:39:34.079Z,7.05
2023-05-07T23:42:04.070Z,6.70
2023-05-07T23:44:34.050Z,6.68
2023-05-07T23:47:04.017Z,6.65
2023-05-07T23:49:34.031Z,6.30
2023-05-07T23:52:06.659Z,6.70
2023-05-07T23:54:36.661Z,6.80
2023-05-07T23:57:06.896Z,6.60
2023-05-07T23:59:36.890Z,6.32
